M I D A S
Marine Information and Data Acquisition System
Tripno 848 of the Zeeleeuw from 2005-02-18 08:11:09 to 2005-02-18 12:28:13
Back to CruiseResearch ActivitiesStationsMapUnderway DataData graphs

EquipmentUnitsComment
TimeDGPSUTC
LatitudeDGPSDM.mWGS84
LongitudeDGPSDM.mWGS84
TemperatureSBE03/SBE38deg celciusITS90
ConductivitySBE21S/mITS90
SalinitySBE21 Practical Salinity Units
ChlorophylAChelsea fluorimeterg/lCalibrated in Aceton
Missing or incorrect values are displayed as -999
Sea surface data collected by the RV Zeeleeuw from 2005-02-18 08:12:17 to 2005-02-18 12:34:27
Time Latitude Longitude Temperature Conductivity Salinity ChlorophylA
2005-02-18 08:13:22 51°13.602 2°56.085 14.0328 0.071061 0.414967 -0.848668
2005-02-18 08:14:22 51°13.62 2°56.025 14.1324 0.071061 0.414967 -0.814958
2005-02-18 08:15:22 51°13.658 2°55.927 14.1844 0.070957 0.414404 -0.848668
2005-02-18 08:16:22 51°13.703 2°55.818 14.1667 0.070957 0.414434 -0.814958
2005-02-18 08:17:21 51°13.722 2°55.735 14.2553 0.070957 0.414419 -0.848668
2005-02-18 08:18:22 51°13.728 2°55.734 14.2048 0.070957 0.414521 -0.882377
2005-02-18 08:19:22 51°13.732 2°55.72 14.3268 0.070957 0.414441 -0.848668
2005-02-18 08:20:22 51°13.8 2°55.658 13.924 0.070957 0.414455 -0.848668
2005-02-18 08:21:21 51°13.904 2°55.578 13.9691 0.070957 0.414514 -0.814958
2005-02-18 08:22:21 51°14.019 2°55.492 14.0232 0.070957 0.414514 -0.814958
2005-02-18 08:23:21 51°14.136 2°55.401 14.0833 0.070957 0.41455 -0.814958
2005-02-18 08:24:22 51°14.255 2°55.26 14.0658 0.070957 0.414645 -0.848668
2005-02-18 08:25:21 51°14.36 2°55.064 13.9586 0.070957 0.414718 -0.848668
2005-02-18 08:26:21 51°14.461 2°54.859 14.247 0.070957 0.414798 -0.882377
2005-02-18 08:27:22 51°14.502 2°54.623 14.149 0.070957 0.414966 -0.848668
2005-02-18 08:28:22 51°14.505 2°54.388 14.1609 0.070853 0.414242 -0.848668
2005-02-18 08:29:22 51°14.45 2°54.182 14.03 0.070853 0.414235 -0.848668
2005-02-18 08:30:21 51°14.368 2°54.001 13.9806 0.070853 0.414279 -0.848668
2005-02-18 08:31:21 51°14.305 2°53.86 14.2374 0.070853 0.414373 -0.814958
2005-02-18 08:32:22 51°14.265 2°53.808 14.1842 0.070853 0.41441 -0.848668
2005-02-18 08:33:21 51°14.239 2°53.797 14.1634 0.070853 0.414425 -0.848668
2005-02-18 08:34:21 51°14.226 2°53.8 14.0193 0.070853 0.414527 -0.848668
2005-02-18 08:35:21 51°14.222 2°53.807 13.9438 0.070853 0.4146 -0.848668
2005-02-18 08:36:21 51°14.222 2°53.808 14.0744 0.070853 0.414666 -0.848668
2005-02-18 08:37:21 51°14.175 2°53.682 13.8607 0.070749 0.414153 -0.848668
2005-02-18 08:38:21 51°14.089 2°53.457 13.8294 0.070749 0.414248 -0.848668
2005-02-18 08:39:22 51°13.984 2°53.196 13.9652 0.070749 0.414321 -0.848668
2005-02-18 08:40:21 51°13.877 2°52.925 13.9602 0.070749 0.414386 -0.848668
2005-02-18 08:41:21 51°13.768 2°52.649 13.9771 0.070749 0.414408 -0.848668
2005-02-18 08:42:22 51°13.657 2°52.371 14.0452 0.070749 0.414438 -0.848668
2005-02-18 08:43:21 51°13.548 2°52.098 14.0148 0.070749 0.414482 -0.848668
2005-02-18 08:44:21 51°13.439 2°51.821 14.0096 0.070645 0.413953 -0.848668
2005-02-18 08:45:22 51°13.33 2°51.54 14.0058 0.070749 0.414723 -0.848668
2005-02-18 08:46:22 51°13.228 2°51.254 14.0717 0.070645 0.414187 -0.848668
2005-02-18 08:47:21 51°13.126 2°50.972 14.0804 0.070645 0.414224 -0.848668
2005-02-18 08:48:22 51°13.023 2°50.684 14.0557 0.070645 0.414275 -0.848668
2005-02-18 08:49:21 51°12.922 2°50.402 14.1171 0.070645 0.414327 -0.814958
2005-02-18 08:50:21 51°12.821 2°50.118 14.1173 0.070645 0.414393 -0.814958
2005-02-18 08:51:22 51°12.718 2°49.831 14.1552 0.070645 0.414459 -0.848668
2005-02-18 08:52:22 51°12.616 2°49.546 14.1678 0.070645 0.414517 -0.848668
2005-02-18 08:53:21 51°12.516 2°49.263 14.1435 0.070645 0.414576 -0.848668
2005-02-18 08:54:21 51°12.414 2°48.977 14.1412 0.070645 0.414657 -0.848668
2005-02-18 08:55:21 51°12.312 2°48.691 14.1555 0.070541 0.414098 -0.882377
2005-02-18 08:56:21 51°12.209 2°48.405 14.2067 0.070541 0.414179 -0.848668
2005-02-18 08:57:21 51°12.105 2°48.12 14.2046 0.070541 0.414245 -0.814958
2005-02-18 08:58:22 51°12.002 2°47.831 14.2061 0.070541 0.414318 -0.848668
2005-02-18 08:59:22 51°11.898 2°47.541 14.2212 0.070541 0.414392 -0.814958
2005-02-18 09:00:21 51°11.793 2°47.253 14.1697 0.070541 0.414472 -0.814958
2005-02-18 09:01:22 51°11.686 2°46.96 14.0942 0.070541 0.414561 -0.848668
2005-02-18 09:02:22 51°11.601 2°46.653 14.2376 0.070541 0.414619 -0.848668
2005-02-18 09:03:21 51°11.522 2°46.344 14.2259 0.070541 0.4147 -0.848668
2005-02-18 09:04:22 51°11.441 2°46.031 14.2652 0.070541 0.414767 -0.848668
2005-02-18 09:05:21 51°11.361 2°45.723 14.2947 0.070541 0.414825 -0.848668
2005-02-18 09:06:21 51°11.282 2°45.414 14.2993 0.070541 0.414921 -0.848668
2005-02-18 09:07:21 51°11.203 2°45.107 14.2614 0.070541 0.414995 -0.814958
2005-02-18 09:08:22 51°11.135 2°44.79 14.2657 0.070437 0.414428 -0.848668
2005-02-18 09:09:22 51°11.065 2°44.477 14.3553 0.070437 0.414494 -0.848668
2005-02-18 09:10:22 51°10.995 2°44.162 14.3806 0.070541 0.415201 -0.848668
2005-02-18 09:11:22 51°10.924 2°43.847 14.3528 0.070437 0.414656 -0.882377
2005-02-18 09:12:22 51°10.856 2°43.531 14.3737 0.070437 0.414745 -0.848668
2005-02-18 09:13:22 51°10.785 2°43.217 14.3586 0.070541 0.415474 -0.848668
2005-02-18 09:14:21 51°10.714 2°42.904 14.3639 0.070541 0.415563 -0.848668
2005-02-18 09:15:21 51°10.643 2°42.591 14.4342 0.070541 0.415637 -0.848668
2005-02-18 09:16:22 51°10.57 2°42.269 14.444 0.070541 0.415718 -0.848668
2005-02-18 09:17:22 51°10.499 2°41.949 14.4606 0.070541 0.415778 -0.848668
2005-02-18 09:18:22 51°10.418 2°41.636 14.4622 0.070541 0.415844 -0.848668
2005-02-18 09:19:22 51°10.329 2°41.328 14.4566 0.070645 0.416575 -0.848668
2005-02-18 09:20:22 51°10.238 2°41.022 14.4306 0.070645 0.416672 -0.814958
2005-02-18 09:21:22 51°10.149 2°40.713 14.4503 0.070645 0.416754 -0.848668
2005-02-18 09:22:22 51°10.059 2°40.405 14.4677 0.070645 0.416835 -0.848668
2005-02-18 09:23:21 51°9.976 2°40.092 14.413 0.070749 0.417523 -0.814958
2005-02-18 09:24:22 51°9.954 2°39.748 14.4739 0.070749 0.417761 -0.882377
2005-02-18 09:25:22 51°9.934 2°39.406 14.4513 0.070749 0.417672 -0.848668
2005-02-18 09:26:22 51°9.914 2°39.066 14.4961 0.070853 0.418412 -0.848668
2005-02-18 09:27:22 51°9.893 2°38.729 14.4612 0.070853 0.418494 -0.882377
2005-02-18 09:28:22 51°9.87 2°38.393 14.4886 0.070853 0.418561 -0.882377
2005-02-18 09:29:22 51°9.849 2°38.057 14.5169 0.070957 0.41928 -0.882377
2005-02-18 09:30:21 51°9.825 2°37.719 14.5289 0.070957 0.41937 -0.814958
2005-02-18 09:31:21 51°9.801 2°37.385 14.5662 0.071061 0.420096 -0.848668
2005-02-18 09:32:21 51°9.785 2°37.044 14.4471 0.071061 0.420209 -0.848668
2005-02-18 09:33:21 51°9.832 2°36.71 14.5829 0.071061 0.420389 -0.848668
2005-02-18 09:34:21 51°9.896 2°36.384 14.5959 0.071165 0.421056 -0.882377
2005-02-18 09:35:21 51°9.968 2°36.054 14.3702 0.071165 0.421154 -0.848668
2005-02-18 09:36:21 51°10.082 2°35.755 14.3518 0.071269 0.42189 -0.848668
2005-02-18 09:37:21 51°10.253 2°35.523 14.5007 0.071269 0.422011 -0.848668
2005-02-18 09:38:21 51°10.457 2°35.364 14.6024 0.071269 0.422139 -0.882377
2005-02-18 09:39:21 51°10.675 2°35.343 14.4864 0.071373 0.422838 -0.848668
2005-02-18 09:40:21 51°10.865 2°35.556 7.0066 0.071373 0.423027 -0.814958
2005-02-18 09:41:21 51°11.053 2°35.784 5.6625 3.113837 30.716385 0.230033
2005-02-18 09:42:21 51°11.219 2°36.057 5.494 3.041201 30.594125 -0.005933
2005-02-18 09:43:21 51°11.386 2°36.332 5.4812 3.018464 30.464566 -0.005933
2005-02-18 09:44:21 51°11.555 2°36.605 5.4666 3.056047 30.924541 -0.107061
2005-02-18 09:45:21 51°11.721 2°36.879 5.4559 3.058363 30.979938 0.061486
2005-02-18 09:46:21 51°11.889 2°37.154 5.4694 3.058258 31.002709 0.027777
2005-02-18 09:47:21 51°12.057 2°37.43 5.4592 3.069628 31.118133 0.061486
2005-02-18 09:48:21 51°12.226 2°37.699 5.4308 3.04952 30.916759 0.061486
2005-02-18 09:49:21 51°12.409 2°37.937 5.4 3.046994 30.92273 0.128905
2005-02-18 09:50:21 51°12.623 2°38.096 5.4655 3.043099 30.892597 0.128905
2005-02-18 09:51:21 51°12.837 2°38.251 5.5132 3.074471 31.185275 0.162614
2005-02-18 09:52:21 51°13.057 2°38.355 5.549 3.090052 31.316512 0.061486
2005-02-18 09:53:21 51°13.28 2°38.459 5.5449 3.09321 31.336592 0.162614
2005-02-18 09:54:21 51°13.492 2°38.558 5.5312 3.093316 31.35471 0.128905
2005-02-18 09:55:21 51°13.611 2°38.61 5.5252 3.091421 31.347989 0.196324
2005-02-18 09:56:21 51°13.671 2°38.669 5.5215 3.092579 31.360169 0.196324
2005-02-18 09:57:21 51°13.687 2°38.691 5.5168 3.08542 31.284725 0.128905
2005-02-18 09:58:21 51°13.699 2°38.696 5.5213 3.088789 31.326539 0.027777
2005-02-18 09:59:21 51°13.713 2°38.699 5.5132 3.091105 31.354135 0.095195
2005-02-18 10:00:22 51°13.725 2°38.697 5.5148 3.089736 31.342819 -0.005933
2005-02-18 10:01:22 51°13.732 2°38.68 5.5093 3.090789 31.355438 0.061486
2005-02-18 10:02:22 51°13.738 2°38.662 5.5097 3.088052 31.327957 0.061486
2005-02-18 10:03:22 51°13.755 2°38.691 5.514 3.082051 31.26386 0.128905
2005-02-18 10:04:21 51°13.764 2°38.806 5.5085 3.079524 31.226667 0.095195
2005-02-18 10:05:22 51°13.759 2°38.874 5.5097 3.089315 31.34617 0.095195
2005-02-18 10:06:21 51°13.757 2°38.911 5.5073 3.085946 31.306754 0.128905
2005-02-18 10:07:21 51°13.724 2°39.015 5.5109 3.086894 31.32142 0.162614
2005-02-18 10:08:22 51°13.744 2°39.023 5.5037 3.089526 31.348533 0.196324
2005-02-18 10:09:21 51°13.658 2°39.065 5.5095 3.087631 31.328075 0.230033
2005-02-18 10:10:21 51°13.518 2°39.06 5.4955 3.083209 31.282494 0.263742
2005-02-18 10:11:21 51°13.45 2°38.99 5.4909 3.082788 31.288253 0.196324
2005-02-18 10:12:22 51°13.456 2°39.003 5.492 3.082051 31.282401 0.263742
2005-02-18 10:13:21 51°13.472 2°39.036 5.4981 3.080367 31.265914 0.263742
2005-02-18 10:14:22 51°13.478 2°39.041 5.4911 3.08342 31.300185 0.297452
2005-02-18 10:15:22 51°13.481 2°39.03 5.5009 3.081314 31.276549 0.196324
2005-02-18 10:16:21 51°13.485 2°39.023 5.4996 3.084788 31.311512 0.230033
2005-02-18 10:17:22 51°13.486 2°39.021 5.5044 3.082788 31.289866 0.230033
2005-02-18 10:18:22 51°13.486 2°39.026 5.5036 3.080998 31.264941 0.196324
2005-02-18 10:19:21 51°13.484 2°39.03 5.5029 3.083209 31.289752 0.230033
2005-02-18 10:20:21 51°13.481 2°39.034 5.5028 3.085736 31.318111 0.196324
2005-02-18 10:21:22 51°13.48 2°39.035 5.5061 3.08363 31.293672 0.263742
2005-02-18 10:22:22 51°13.482 2°39.037 5.5057 3.083736 31.294046 0.230033
2005-02-18 10:23:22 51°13.476 2°39.015 5.5069 3.084473 31.303124 0.263742
2005-02-18 10:24:22 51°13.475 2°38.99 5.5015 3.075629 31.203893 0.230033
2005-02-18 10:25:21 51°13.483 2°39.001 5.5039 3.086157 31.323645 0.230033
2005-02-18 10:26:22 51°13.488 2°39.018 5.5052 3.084999 31.310646 0.263742
2005-02-18 10:27:22 51°13.482 2°39.015 5.5041 3.084894 31.30785 0.196324
2005-02-18 10:28:22 51°13.472 2°39.004 5.5168 3.085104 31.310214 0.230033
2005-02-18 10:29:22 51°13.459 2°38.992 5.5092 3.08363 31.291252 0.230033
2005-02-18 10:30:22 51°13.446 2°38.978 5.5059 3.080682 31.25898 0.196324
2005-02-18 10:31:21 51°13.438 2°38.971 5.5064 3.081841 31.271974 0.263742
2005-02-18 10:32:21 51°13.414 2°38.961 5.5102 3.08521 31.309781 0.230033
2005-02-18 10:33:21 51°13.383 2°38.981 5.5074 3.086052 31.317619 0.196324
2005-02-18 10:34:21 51°13.324 2°39.003 5.4963 3.083736 31.294046 0.230033
2005-02-18 10:35:21 51°13.293 2°39.141 5.5072 3.081946 31.282026 0.162614
2005-02-18 10:36:21 51°13.396 2°39.243 5.5139 3.08342 31.291309 0.230033
2005-02-18 10:37:21 51°13.58 2°39.269 5.4921 3.07984 31.245502 0.263742
2005-02-18 10:38:21 51°13.804 2°39.286 5.4877 3.077735 31.245237 0.196324
2005-02-18 10:39:21 51°14.018 2°39.182 5.4883 3.078577 31.253079 0.196324
2005-02-18 10:40:21 51°14.155 2°38.91 5.5074 3.082894 31.299926 0.230033
2005-02-18 10:41:21 51°14.223 2°38.577 5.5142 3.08721 31.333039 0.162614
2005-02-18 10:42:21 51°14.187 2°38.234 5.5336 3.091 31.369924 0.230033
2005-02-18 10:43:20 51°14.144 2°37.895 5.5322 3.092579 31.373904 0.196324
2005-02-18 10:44:22 51°14.105 2°37.548 5.5504 3.099949 31.450127 0.162614
2005-02-18 10:45:21 51°14.07 2°37.212 5.5594 3.107635 31.520964 0.095195
2005-02-18 10:46:21 51°14.039 2°36.875 5.569 3.11153 31.557366 0.061486
2005-02-18 10:47:21 51°14.007 2°36.531 5.5819 3.115004 31.588222 0.061486
2005-02-18 10:48:21 51°13.977 2°36.189 5.5948 3.119426 31.626444 0.162614
2005-02-18 10:49:21 51°13.95 2°35.848 5.6048 3.126165 31.689 0.095195
2005-02-18 10:50:21 51°13.94 2°35.496 5.6189 3.12985 31.717289 0.230033
2005-02-18 10:51:21 51°13.957 2°35.149 5.6365 3.132377 31.734208 0.196324
2005-02-18 10:52:20 51°14.073 2°34.851 5.6204 3.135535 31.756569 0.263742
2005-02-18 10:53:21 51°14.26 2°34.637 5.6394 3.131429 31.727661 0.095195
2005-02-18 10:54:21 51°14.487 2°34.601 5.65 3.140484 31.794077 0.128905
2005-02-18 10:55:21 51°14.709 2°34.711 5.6698 3.141431 31.803878 0.230033
2005-02-18 10:56:21 51°14.918 2°34.877 5.6623 3.145432 31.837273 0.162614
2005-02-18 10:57:21 51°15.117 2°35.064 5.6492 3.140168 31.783198 0.263742
2005-02-18 10:58:21 51°15.311 2°35.272 5.6311 3.1428 31.832285 0.196324
2005-02-18 10:59:21 51°15.505 2°35.468 5.6272 3.138905 31.8025 0.128905
2005-02-18 11:00:21 51°15.701 2°35.669 5.6312 3.139747 31.80786 0.128905
2005-02-18 11:01:21 51°15.895 2°35.867 5.6167 3.136272 31.777069 0.230033
2005-02-18 11:02:21 51°16.093 2°36.063 5.6151 3.131218 31.72693 0.196324
2005-02-18 11:03:21 51°16.289 2°36.255 5.6107 3.132271 31.738735 0.095195
2005-02-18 11:04:21 51°16.491 2°36.451 5.5981 3.13006 31.718835 0.061486
2005-02-18 11:05:21 51°16.692 2°36.645 5.5869 3.129008 31.720072 0.162614
2005-02-18 11:06:21 51°16.893 2°36.843 5.5723 3.123533 31.670065 0.061486
2005-02-18 11:07:21 51°17.096 2°37.04 5.5701 3.125217 31.697116 0.095195
2005-02-18 11:08:21 51°17.3 2°37.239 5.5613 3.123112 31.680007 0.095195
2005-02-18 11:09:21 51°17.5 2°37.439 5.5694 3.122691 31.677725 0.061486
2005-02-18 11:10:21 51°17.7 2°37.639 5.5806 3.127744 31.727925 0.095195
2005-02-18 11:11:21 51°17.899 2°37.838 5.5852 3.131324 31.759121 -0.005933
2005-02-18 11:12:21 51°18.097 2°38.039 5.5739 3.130377 31.750936 0.027777
2005-02-18 11:13:21 51°18.299 2°38.236 5.5735 3.130587 31.756567 0.061486
2005-02-18 11:14:21 51°18.501 2°38.427 5.6081 3.130271 31.744038 0.027777
2005-02-18 11:15:21 51°18.702 2°38.618 5.6004 3.142169 31.855466 0.162614
2005-02-18 11:16:21 51°18.903 2°38.816 5.594 3.138168 31.814667 0.128905
2005-02-18 11:17:21 51°19.108 2°39.012 5.5912 3.1388 31.832391 0.128905
2005-02-18 11:18:22 51°19.29 2°39.257 5.5965 3.134693 31.787126 0.196324
2005-02-18 11:19:22 51°19.451 2°39.533 5.61 3.137957 31.810669 0.162614
2005-02-18 11:20:22 51°19.613 2°39.808 5.6223 3.146065 31.890164 0.196324
2005-02-18 11:21:21 51°19.773 2°40.077 5.6142 3.144275 31.863535 0.230033
2005-02-18 11:22:22 51°19.938 2°40.347 5.6144 3.143853 31.870273 0.230033
2005-02-18 11:23:21 51°20.104 2°40.611 5.6235 3.14459 31.871171 0.095195
2005-02-18 11:24:21 51°20.267 2°40.878 5.6159 3.146591 31.895251 0.027777
2005-02-18 11:25:22 51°20.395 2°41.191 5.6041 3.143222 31.854181 0.061486
2005-02-18 11:26:21 51°20.505 2°41.522 5.5996 3.143538 31.873281 0.061486
2005-02-18 11:27:22 51°20.588 2°41.876 5.6213 3.142485 31.859828 0.128905
2005-02-18 11:28:22 51°20.553 2°42.241 5.5935 3.140168 31.83793 0.061486
2005-02-18 11:29:22 51°20.512 2°42.61 5.5914 3.143538 31.885574 0.027777
2005-02-18 11:30:21 51°20.47 2°42.973 5.6112 3.14617 31.912664 0.027777
2005-02-18 11:31:21 51°20.431 2°43.333 5.6133 3.14996 31.932234 0.162614
2005-02-18 11:32:22 51°20.385 2°43.696 5.5988 3.154067 31.982422 -0.005933
2005-02-18 11:33:22 51°20.338 2°44.055 5.573 3.145854 31.913221 -0.005933
2005-02-18 11:34:22 51°20.246 2°44.39 5.4987 3.127218 31.728546 -0.005933
2005-02-18 11:35:21 51°20.15 2°44.719 5.4741 3.110373 31.598867 0.061486
2005-02-18 11:36:22 51°20.053 2°45.05 5.4912 3.106056 31.556053 0.061486
2005-02-18 11:37:21 51°19.962 2°45.376 5.5038 3.104687 31.523599 0.061486
2005-02-18 11:38:22 51°19.865 2°45.706 5.492 3.102581 31.495891 0.095195
2005-02-18 11:39:21 51°19.769 2°46.026 5.5754 3.108477 31.549097 0.095195
2005-02-18 11:40:22 51°19.67 2°46.35 5.5439 3.120269 31.642404 0.061486
2005-02-18 11:41:22 51°19.574 2°46.674 5.4771 3.112373 31.583075 0.128905
2005-02-18 11:42:21 51°19.484 2°46.998 5.4023 3.095633 31.470598 0.027777
2005-02-18 11:43:22 51°19.389 2°47.327 5.3425 3.073314 31.28843 0.196324
2005-02-18 11:44:22 51°19.291 2°47.648 5.3528 3.065102 31.218628 0.263742
2005-02-18 11:45:22 51°19.193 2°47.971 5.3226 3.066787 31.231127 0.297452
2005-02-18 11:46:21 51°19.102 2°48.293 5.2883 3.057523 31.175271 0.196324
2005-02-18 11:47:22 51°19.007 2°48.617 5.2957 3.05647 31.167446 0.297452
2005-02-18 11:48:22 51°18.908 2°48.933 5.2584 3.05268 31.138456 0.331161
2005-02-18 11:49:22 51°18.809 2°49.247 5.2255 3.044048 31.076621 0.263742
2005-02-18 11:50:22 51°18.705 2°49.556 5.2141 3.038679 31.033783 0.297452
2005-02-18 11:51:22 51°18.595 2°49.862 5.1818 3.026784 30.928491 0.432289
2005-02-18 11:52:22 51°18.482 2°50.166 5.1691 3.012362 30.795346 0.39858
2005-02-18 11:53:22 51°18.361 2°50.459 5.1625 3.010678 30.781935 0.432289
2005-02-18 11:54:22 51°18.242 2°50.754 5.148 3.009941 30.780829 0.465999
2005-02-18 11:55:21 51°18.121 2°51.045 5.1464 3.006783 30.753166 0.567127
2005-02-18 11:56:22 51°17.993 2°51.337 5.1436 3.00531 30.737314 0.364871
2005-02-18 11:57:22 51°17.862 2°51.623 5.1569 3.002573 30.707992 0.533418
2005-02-18 11:58:21 51°17.728 2°51.899 5.1439 2.997941 30.662861 0.39858
2005-02-18 11:59:22 51°17.563 2°52.131 5.125 2.996573 30.648999 0.465999
2005-02-18 12:00:22 51°17.372 2°52.301 5.1122 2.991099 30.595141 0.432289
2005-02-18 12:01:21 51°17.162 2°52.389 5.0896 2.97731 30.463233 0.39858
2005-02-18 12:02:22 51°16.947 2°52.467 5.0891 2.966258 30.353433 0.297452
2005-02-18 12:03:22 51°16.733 2°52.544 5.0925 2.967836 30.367309 0.465999
2005-02-18 12:04:22 51°16.516 2°52.622 5.0843 2.966468 30.345509 0.331161
2005-02-18 12:05:22 51°16.3 2°52.704 5.0979 2.9631 30.313797 0.364871
2005-02-18 12:06:22 51°16.086 2°52.785 5.1057 2.958995 30.265059 0.331161
2005-02-18 12:07:22 51°15.872 2°52.87 5.1029 2.958679 30.257542 0.364871
2005-02-18 12:08:22 51°15.659 2°52.955 5.0726 2.942049 30.08319 0.432289
2005-02-18 12:09:22 51°15.444 2°53.033 5.1002 2.927839 29.939286 0.331161
2005-02-18 12:10:22 51°15.236 2°53.138 5.0747 2.930892 29.96199 0.297452
2005-02-18 12:11:22 51°15.066 2°53.356 5.0905 2.925103 29.895903 0.567127
2005-02-18 12:12:22 51°14.924 2°53.622 5.0681 2.919945 29.835401 0.499708
2005-02-18 12:13:22 51°14.831 2°53.833 5.0628 2.914472 29.767477 0.668255
2005-02-18 12:14:21 51°14.769 2°53.873 5.0735 2.905948 29.699338 0.668255
2005-02-18 12:15:22 51°14.741 2°53.872 5.0658 2.904369 29.679209 0.499708
2005-02-18 12:16:22 51°14.691 2°53.848 5.0683 2.903737 29.670539 0.634546
2005-02-18 12:17:22 51°14.66 2°53.82 5.0729 2.901422 29.642113 0.600836
2005-02-18 12:18:22 51°14.617 2°53.789 5.0628 2.903106 29.659544 0.567127
2005-02-18 12:19:22 51°14.56 2°53.922 5.0876 2.902053 29.65233 0.567127
2005-02-18 12:20:22 51°14.521 2°54.205 5.0892 2.890055 29.495532 0.600836
2005-02-18 12:21:22 51°14.483 2°54.512 5.0871 2.884162 29.426117 0.600836
2005-02-18 12:22:22 51°14.438 2°54.817 5.106 2.8749 29.323449 0.769383
2005-02-18 12:23:22 51°14.354 2°55.093 5.485 2.867639 29.237196 -0.882377
2005-02-18 12:24:22 51°14.262 2°55.268 5.547 2.867744 29.238379 -0.882377
2005-02-18 12:25:22 51°14.168 2°55.379 5.6248 2.867849 29.238799 -0.882377
2005-02-18 12:26:22 51°14.068 2°55.454 5.7461 2.868165 29.238532 -0.882377
2005-02-18 12:27:22 51°13.967 2°55.532 5.8976 2.868586 29.234107 -0.882377
2005-02-18 12:28:21 51°13.87 2°55.601 6.0454 2.869217 29.224426 -0.882377
2005-02-18 12:29:22 51°13.784 2°55.679 6.136 2.870059 29.221691 -0.916087
2005-02-18 12:30:22 51°13.712 2°55.783 6.2146 2.871216 29.218695 -0.882377
2005-02-18 12:31:22 51°13.656 2°55.911 6.3716 2.872584 29.218065 -0.882377
2005-02-18 12:32:21 51°13.619 2°56.012 6.4113 2.874162 29.219797 -0.916087
2005-02-18 12:33:22 51°13.6 2°56.085 6.6957 2.875951 29.223888 -0.882377
2005-02-18 12:34:22 51°13.595 2°56.103 6.9356 2.878267 29.233112 -0.882377